createdAt,value
2016-07-04T00:00:11.100Z,1015.12
2016-07-04T00:01:11.080Z,1015.11
2016-07-04T00:02:11.062Z,1015.11
2016-07-04T00:03:11.047Z,1015.12
2016-07-04T00:04:11.033Z,1015.11
2016-07-04T00:05:11.014Z,1015.11
2016-07-04T00:06:10.999Z,1015.11
2016-07-04T00:07:10.990Z,1015.11
2016-07-04T00:08:10.965Z,1015.12
2016-07-04T00:09:10.954Z,1015.13
2016-07-04T00:10:10.936Z,1015.12
2016-07-04T00:11:10.917Z,1015.12
2016-07-04T00:12:10.901Z,1015.12
2016-07-04T00:13:10.886Z,1015.1
2016-07-04T00:14:10.873Z,1015.06
2016-07-04T00:15:10.855Z,1015.05
2016-07-04T00:16:10.838Z,1015.06
2016-07-04T00:17:10.822Z,1015.02
2016-07-04T00:18:10.812Z,1015.07
2016-07-04T00:19:10.788Z,1015.06
2016-07-04T00:20:10.775Z,1015.08
2016-07-04T00:21:10.753Z,1015.03
2016-07-04T00:22:10.745Z,1015.02
2016-07-04T00:23:10.723Z,1015.04
2016-07-04T00:24:10.708Z,1015.04
2016-07-04T00:25:10.690Z,1015.06
2016-07-04T00:26:10.672Z,1015.05
2016-07-04T00:27:10.654Z,1015.03
2016-07-04T00:28:10.642Z,1015.03
2016-07-04T00:29:10.628Z,1015.03
2016-07-04T00:30:10.608Z,1015.05
2016-07-04T00:31:10.592Z,1015.06
2016-07-04T00:32:10.574Z,1015.07
2016-07-04T00:33:10.560Z,1015.04
2016-07-04T00:34:10.543Z,1015.06
2016-07-04T00:35:10.527Z,1015.06
2016-07-04T00:36:10.509Z,1015.1
2016-07-04T00:37:10.495Z,1015.07
2016-07-04T00:38:10.483Z,1015.07
2016-07-04T00:39:10.461Z,1015.09
2016-07-04T00:40:10.445Z,1015.1
2016-07-04T00:41:10.425Z,1015.1
2016-07-04T00:42:10.417Z,1015.11
2016-07-04T00:43:10.404Z,1015.07
2016-07-04T00:44:10.380Z,1015.07
2016-07-04T00:45:10.361Z,1015.15
2016-07-04T00:46:10.346Z,1015.05
2016-07-04T00:47:10.333Z,1015.06
2016-07-04T00:48:10.311Z,1015.05
2016-07-04T00:49:10.300Z,1015.03
2016-07-04T00:50:10.279Z,1014.97
2016-07-04T00:51:10.262Z,1015
2016-07-04T00:52:10.244Z,1014.97
2016-07-04T00:53:10.232Z,1014.95
2016-07-04T00:54:10.214Z,1014.96
2016-07-04T00:55:10.200Z,1014.9
2016-07-04T00:56:10.184Z,1014.92
2016-07-04T00:57:10.164Z,1014.93
2016-07-04T00:58:10.148Z,1014.89
2016-07-04T00:59:10.133Z,1014.91
2016-07-04T01:00:10.117Z,1014.88
2016-07-04T01:01:10.101Z,1014.88
2016-07-04T01:02:10.084Z,1014.9
2016-07-04T01:03:10.065Z,1014.86
2016-07-04T01:04:10.051Z,1014.88
2016-07-04T01:05:10.034Z,1014.9
2016-07-04T01:06:10.063Z,1014.87
2016-07-04T01:07:10.029Z,1014.88
2016-07-04T01:08:09.984Z,1014.9
2016-07-04T01:09:09.970Z,1014.88
2016-07-04T01:10:09.955Z,1014.87
2016-07-04T01:11:09.935Z,1014.88
2016-07-04T01:12:09.977Z,1014.87
2016-07-04T01:13:09.909Z,1014.92
2016-07-04T01:14:09.887Z,1014.91
2016-07-04T01:15:09.871Z,1014.94
2016-07-04T01:16:09.853Z,1014.92
2016-07-04T01:17:09.834Z,1014.91
2016-07-04T01:18:09.821Z,1014.91
2016-07-04T01:19:09.806Z,1014.94
2016-07-04T01:20:09.786Z,1014.92
2016-07-04T01:21:09.771Z,1014.87
2016-07-04T01:22:09.756Z,1014.89
2016-07-04T01:23:09.739Z,1014.89
2016-07-04T01:24:09.722Z,1014.89
2016-07-04T01:25:09.706Z,1014.91
2016-07-04T01:26:09.692Z,1014.9
2016-07-04T01:27:09.672Z,1014.87
2016-07-04T01:28:09.657Z,1014.84
2016-07-04T01:29:09.640Z,1014.87
2016-07-04T01:30:09.626Z,1014.87
2016-07-04T01:31:09.607Z,1014.85
2016-07-04T01:32:09.590Z,1014.86
2016-07-04T01:33:09.578Z,1014.83
2016-07-04T01:34:09.557Z,1014.84
2016-07-04T01:35:09.548Z,1014.85
2016-07-04T01:36:09.526Z,1014.88
2016-07-04T01:37:09.508Z,1014.85
2016-07-04T01:38:09.495Z,1014.89
2016-07-04T01:39:09.476Z,1014.87
2016-07-04T01:40:09.456Z,1014.82
2016-07-04T01:41:09.441Z,1014.86
2016-07-04T01:42:09.426Z,1014.84
2016-07-04T01:43:09.405Z,1014.84
2016-07-04T01:44:09.392Z,1014.81
2016-07-04T01:45:09.383Z,1014.84
2016-07-04T01:46:09.358Z,1014.8
2016-07-04T01:47:09.340Z,1014.8
2016-07-04T01:48:09.327Z,1014.79
2016-07-04T01:49:09.309Z,1014.8
2016-07-04T01:50:09.294Z,1014.79
2016-07-04T01:51:09.278Z,1014.8
2016-07-04T01:52:09.262Z,1014.79
2016-07-04T01:53:09.244Z,1014.78
2016-07-04T01:54:09.228Z,1014.77
2016-07-04T01:55:09.210Z,1014.77
2016-07-04T01:56:09.193Z,1014.77
2016-07-04T01:57:09.179Z,1014.78
2016-07-04T01:58:09.165Z,1014.76
2016-07-04T01:59:09.141Z,1014.74
2016-07-04T02:00:09.128Z,1014.78
2016-07-04T02:01:09.110Z,1014.74
2016-07-04T02:02:09.093Z,1014.76
2016-07-04T02:03:09.077Z,1014.74
2016-07-04T02:04:09.061Z,1014.74
2016-07-04T02:05:09.044Z,1014.75
2016-07-04T02:06:09.027Z,1014.75
2016-07-04T02:07:09.015Z,1014.71
2016-07-04T02:08:08.995Z,1014.72
2016-07-04T02:09:09.018Z,1014.73
2016-07-04T02:10:08.964Z,1014.72
2016-07-04T02:11:08.992Z,1014.71
2016-07-04T02:12:08.930Z,1014.75
2016-07-04T02:13:08.963Z,1014.72
2016-07-04T02:14:08.939Z,1014.75
2016-07-04T02:15:08.917Z,1014.73
2016-07-04T02:16:08.858Z,1014.74
2016-07-04T02:17:08.881Z,1014.73
2016-07-04T02:18:08.831Z,1014.75
2016-07-04T02:19:08.812Z,1014.73
2016-07-04T02:20:08.796Z,1014.72
2016-07-04T02:21:08.781Z,1014.79
2016-07-04T02:22:08.767Z,1014.72
2016-07-04T02:23:08.749Z,1014.74
2016-07-04T02:24:08.731Z,1014.77
2016-07-04T02:25:08.715Z,1014.78
2016-07-04T02:26:08.697Z,1014.77
2016-07-04T02:27:08.682Z,1014.77
2016-07-04T02:28:08.664Z,1014.81
2016-07-04T02:29:08.647Z,1014.76
2016-07-04T02:30:08.626Z,1014.81
2016-07-04T02:31:08.614Z,1014.84
2016-07-04T02:32:08.599Z,1014.78
2016-07-04T02:33:08.581Z,1014.8
2016-07-04T02:34:08.562Z,1014.81
2016-07-04T02:35:08.546Z,1014.77
2016-07-04T02:36:08.535Z,1014.82
2016-07-04T02:37:08.515Z,1014.78
2016-07-04T02:38:08.498Z,1014.82
2016-07-04T02:39:08.481Z,1014.77
2016-07-04T02:40:08.463Z,1014.77
2016-07-04T02:41:08.448Z,1014.77
2016-07-04T02:42:08.432Z,1014.75
2016-07-04T02:43:08.413Z,1014.74
2016-07-04T02:44:08.398Z,1014.76
2016-07-04T02:45:08.381Z,1014.74
2016-07-04T02:46:08.367Z,1014.75
2016-07-04T02:47:08.348Z,1014.73
2016-07-04T02:48:08.332Z,1014.77
2016-07-04T02:49:08.316Z,1014.72
2016-07-04T02:50:08.301Z,1014.7
2016-07-04T02:51:08.279Z,1014.71
2016-07-04T02:52:08.270Z,1014.64
2016-07-04T02:53:08.249Z,1014.7
2016-07-04T02:54:08.233Z,1014.66
2016-07-04T02:55:08.212Z,1014.67
2016-07-04T02:56:08.202Z,1014.68
2016-07-04T02:57:08.182Z,1014.69
2016-07-04T02:58:08.167Z,1014.65
2016-07-04T02:59:08.151Z,1014.63
2016-07-04T03:00:08.130Z,1014.63
2016-07-04T03:01:08.119Z,1014.63
2016-07-04T03:02:08.100Z,1014.68
2016-07-04T03:03:08.081Z,1014.67
2016-07-04T03:04:08.063Z,1014.62
2016-07-04T03:05:08.050Z,1014.61
2016-07-04T03:06:08.032Z,1014.58
2016-07-04T03:07:08.015Z,1014.58
2016-07-04T03:08:07.997Z,1014.54
2016-07-04T03:09:07.979Z,1014.56
2016-07-04T03:10:07.966Z,1014.59
2016-07-04T03:11:07.946Z,1014.57
2016-07-04T03:12:07.929Z,1014.56
2016-07-04T03:13:07.923Z,1014.55
2016-07-04T03:14:07.898Z,1014.61
2016-07-04T03:15:07.877Z,1014.6
2016-07-04T03:16:07.861Z,1014.64
2016-07-04T03:17:07.846Z,1014.67
2016-07-04T03:18:07.827Z,1014.62
2016-07-04T03:19:07.813Z,1014.64
2016-07-04T03:20:07.791Z,1014.65
2016-07-04T03:21:07.779Z,1014.66
2016-07-04T03:22:07.770Z,1014.67
2016-07-04T03:23:07.745Z,1014.71
2016-07-04T03:24:07.726Z,1014.69
2016-07-04T03:25:07.711Z,1014.71
2016-07-04T03:26:07.693Z,1014.72
2016-07-04T03:27:07.677Z,1014.73
2016-07-04T03:28:07.666Z,1014.67
2016-07-04T03:29:07.643Z,1014.68
2016-07-04T03:30:07.628Z,1014.73
2016-07-04T03:31:07.611Z,1014.72
2016-07-04T03:32:07.595Z,1014.76
2016-07-04T03:33:07.577Z,1014.8
2016-07-04T03:34:07.560Z,1014.78
2016-07-04T03:35:07.543Z,1014.77
2016-07-04T03:36:07.526Z,1014.79
2016-07-04T03:37:07.509Z,1014.8
2016-07-04T03:38:07.496Z,1014.76
2016-07-04T03:39:07.481Z,1014.77
2016-07-04T03:40:07.460Z,1014.8
2016-07-04T03:41:07.441Z,1014.78
2016-07-04T03:42:07.424Z,1014.77
2016-07-04T03:43:07.409Z,1014.8
2016-07-04T03:44:07.392Z,1014.82
2016-07-04T03:45:07.376Z,1014.87
2016-07-04T03:46:07.357Z,1014.87
2016-07-04T03:47:07.342Z,1014.85
2016-07-04T03:48:07.326Z,1014.82
2016-07-04T03:49:07.310Z,1014.82
2016-07-04T03:50:07.293Z,1014.85
2016-07-04T03:51:07.274Z,1014.83
2016-07-04T03:52:07.258Z,1014.83
2016-07-04T03:53:07.246Z,1014.81
2016-07-04T03:54:07.227Z,1014.88
2016-07-04T03:55:07.208Z,1014.86
2016-07-04T03:56:07.192Z,1014.83
2016-07-04T03:57:07.175Z,1014.8
2016-07-04T03:58:07.162Z,1014.85
2016-07-04T03:59:07.142Z,1014.89
2016-07-04T04:00:07.126Z,1014.86
2016-07-04T04:01:07.110Z,1014.87
2016-07-04T04:02:07.099Z,1014.87
2016-07-04T04:03:07.078Z,1014.85
2016-07-04T04:04:07.060Z,1014.89
2016-07-04T04:05:07.041Z,1014.86
2016-07-04T04:06:07.024Z,1014.92
2016-07-04T04:07:07.006Z,1014.87
2016-07-04T04:08:06.992Z,1014.89
2016-07-04T04:09:06.973Z,1014.9
2016-07-04T04:10:06.956Z,1014.92
2016-07-04T04:11:07.090Z,1014.93
2016-07-04T04:12:06.923Z,1014.93
2016-07-04T04:13:07.585Z,1014.92
2016-07-04T04:14:06.890Z,1014.89
2016-07-04T04:15:06.873Z,1014.96
2016-07-04T04:16:06.862Z,1014.91
2016-07-04T04:17:06.844Z,1014.94
2016-07-04T04:18:06.828Z,1014.97
2016-07-04T04:19:06.811Z,1014.9
2016-07-04T04:20:06.896Z,1014.89
2016-07-04T04:21:06.780Z,1014.94
2016-07-04T04:22:06.764Z,1014.91
2016-07-04T04:23:06.746Z,1014.93
2016-07-04T04:24:06.731Z,1014.94
2016-07-04T04:25:06.717Z,1014.91
2016-07-04T04:26:06.705Z,1014.93
2016-07-04T04:27:06.682Z,1014.9
2016-07-04T04:28:06.666Z,1014.94
2016-07-04T04:29:06.654Z,1014.89
2016-07-04T04:30:06.635Z,1014.9
2016-07-04T04:31:06.618Z,1014.88
2016-07-04T04:32:06.598Z,1014.88
2016-07-04T04:33:06.589Z,1014.93
2016-07-04T04:34:06.566Z,1014.91
2016-07-04T04:35:06.551Z,1014.91
2016-07-04T04:36:06.535Z,1014.89
2016-07-04T04:37:06.521Z,1014.92
2016-07-04T04:38:06.504Z,1014.94
2016-07-04T04:39:06.484Z,1014.94
2016-07-04T04:40:06.465Z,1014.95
2016-07-04T04:41:06.452Z,1014.92
2016-07-04T04:42:06.435Z,1014.88
2016-07-04T04:43:06.418Z,1014.87
2016-07-04T04:44:06.404Z,1014.91
2016-07-04T04:45:06.385Z,1014.89
2016-07-04T04:46:06.376Z,1014.91
2016-07-04T04:47:06.352Z,1014.92
2016-07-04T04:48:06.338Z,1014.89
2016-07-04T04:49:06.325Z,1014.89
2016-07-04T04:50:06.310Z,1014.9
2016-07-04T04:51:06.291Z,1014.9
2016-07-04T04:52:06.276Z,1014.88
2016-07-04T04:53:06.260Z,1014.89
2016-07-04T04:54:06.240Z,1014.91
2016-07-04T04:55:06.222Z,1014.94
2016-07-04T04:56:06.209Z,1014.88
2016-07-04T04:57:06.191Z,1014.93
2016-07-04T04:58:06.182Z,1014.9
2016-07-04T04:59:06.157Z,1014.92
2016-07-04T05:00:06.142Z,1014.97
2016-07-04T05:01:06.127Z,1014.94
2016-07-04T05:02:06.112Z,1014.94
2016-07-04T05:03:06.092Z,1014.93
2016-07-04T05:04:06.078Z,1014.98
2016-07-04T05:05:06.062Z,1014.98
2016-07-04T05:06:06.043Z,1015.02
2016-07-04T05:07:06.025Z,1014.96
2016-07-04T05:08:06.011Z,1015.01
2016-07-04T05:09:05.997Z,1015.01
2016-07-04T05:10:05.981Z,1015.07
2016-07-04T05:11:05.968Z,1015.07
2016-07-04T05:12:05.948Z,1015.05
2016-07-04T05:13:05.934Z,1015.06
2016-07-04T05:14:05.916Z,1015.04
2016-07-04T05:15:05.895Z,1015.03
2016-07-04T05:16:05.882Z,1014.99
2016-07-04T05:17:05.864Z,1015.06
2016-07-04T05:18:05.849Z,1015.04
2016-07-04T05:19:05.832Z,1015.06
2016-07-04T05:20:05.818Z,1015.08
2016-07-04T05:21:05.801Z,1015.1
2016-07-04T05:22:05.788Z,1015.09
2016-07-04T05:23:05.766Z,1015.07
2016-07-04T05:24:05.752Z,1015.13
2016-07-04T05:25:05.727Z,1015.1
2016-07-04T05:26:05.716Z,1015.14
2016-07-04T05:27:05.699Z,1015.1
2016-07-04T05:28:05.683Z,1015.16
2016-07-04T05:29:05.673Z,1015.17
2016-07-04T05:30:05.655Z,1015.14
2016-07-04T05:31:05.633Z,1015.13
2016-07-04T05:32:05.621Z,1015.18
2016-07-04T05:33:05.609Z,1015.14
2016-07-04T05:34:05.583Z,1015.14
2016-07-04T05:35:05.565Z,1015.12
2016-07-04T05:36:05.553Z,1015.18
2016-07-04T05:37:05.540Z,1015.15
2016-07-04T05:38:05.515Z,1015.12
2016-07-04T05:39:05.550Z,1015.14
2016-07-04T05:40:05.485Z,1015.11
2016-07-04T05:41:05.468Z,1015.12
2016-07-04T05:42:05.451Z,1015.13
2016-07-04T05:43:05.435Z,1015.18
2016-07-04T05:44:05.422Z,1015.16
2016-07-04T05:45:05.404Z,1015.13
2016-07-04T05:46:05.387Z,1015.16
2016-07-04T05:47:05.370Z,1015.15
2016-07-04T05:48:05.357Z,1015.11
2016-07-04T05:49:05.371Z,1015.14
2016-07-04T05:50:05.322Z,1015.15
2016-07-04T05:51:05.302Z,1015.15
2016-07-04T05:52:05.287Z,1015.14
2016-07-04T05:53:05.274Z,1015.15
2016-07-04T05:54:05.257Z,1015.14
2016-07-04T05:55:05.239Z,1015.11
2016-07-04T05:56:05.224Z,1015.13
2016-07-04T05:57:05.210Z,1015.14
2016-07-04T05:58:05.199Z,1015.12
2016-07-04T05:59:05.179Z,1015.13
2016-07-04T06:00:05.163Z,1015.14
2016-07-04T06:01:05.147Z,1015.16
2016-07-04T06:02:05.130Z,1015.15
2016-07-04T06:03:05.115Z,1015.17
2016-07-04T06:04:05.101Z,1015.15
2016-07-04T06:05:05.085Z,1015.12
2016-07-04T06:06:05.066Z,1015.16
2016-07-04T06:07:05.050Z,1015.15
2016-07-04T06:08:05.032Z,1015.12
2016-07-04T06:09:05.017Z,1015.18
2016-07-04T06:10:05.002Z,1015.13
2016-07-04T06:11:04.984Z,1015.11
2016-07-04T06:12:04.965Z,1015.14
2016-07-04T06:13:04.952Z,1015.17
2016-07-04T06:14:04.935Z,1015.19
2016-07-04T06:15:04.920Z,1015.17
2016-07-04T06:16:04.910Z,1015.2
2016-07-04T06:17:04.894Z,1015.14
2016-07-04T06:18:04.871Z,1015.19
2016-07-04T06:19:04.859Z,1015.2
2016-07-04T06:20:04.837Z,1015.16
2016-07-04T06:21:04.821Z,1015.17
2016-07-04T06:22:04.809Z,1015.17
2016-07-04T06:23:04.795Z,1015.18
2016-07-04T06:24:04.774Z,1015.16
2016-07-04T06:25:04.759Z,1015.17
2016-07-04T06:26:04.742Z,1015.19
2016-07-04T06:27:04.728Z,1015.19
2016-07-04T06:28:04.714Z,1015.2
2016-07-04T06:29:04.693Z,1015.16
2016-07-04T06:30:04.677Z,1015.2
2016-07-04T06:31:04.661Z,1015.19
2016-07-04T06:32:04.646Z,1015.18
2016-07-04T06:33:04.634Z,1015.14
2016-07-04T06:34:04.610Z,1015.19
2016-07-04T06:35:04.596Z,1015.18
2016-07-04T06:36:04.582Z,1015.17
2016-07-04T06:37:04.563Z,1015.13
2016-07-04T06:38:04.548Z,1015.18
2016-07-04T06:39:04.531Z,1015.18
2016-07-04T06:40:04.523Z,1015.17
2016-07-04T06:41:04.514Z,1015.21
2016-07-04T06:42:04.487Z,1015.19
2016-07-04T06:43:04.466Z,1015.21
2016-07-04T06:44:04.448Z,1015.19
2016-07-04T06:45:04.435Z,1015.23
2016-07-04T06:46:04.418Z,1015.22
2016-07-04T06:47:04.402Z,1015.27
2016-07-04T06:48:04.385Z,1015.23
2016-07-04T06:49:04.370Z,1015.22
2016-07-04T06:50:04.354Z,1015.19
2016-07-04T06:51:04.333Z,1015.23
2016-07-04T06:52:04.317Z,1015.25
2016-07-04T06:53:04.305Z,1015.2
2016-07-04T06:54:04.287Z,1015.22
2016-07-04T06:55:04.279Z,1015.22
2016-07-04T06:56:04.255Z,1015.23
2016-07-04T06:57:05.194Z,1015.21
2016-07-04T06:58:04.218Z,1015.2
2016-07-04T06:59:04.207Z,1015.22
2016-07-04T07:00:04.191Z,1015.21
2016-07-04T07:01:04.175Z,1015.21
2016-07-04T07:02:04.163Z,1015.18
2016-07-04T07:03:04.142Z,1015.24
2016-07-04T07:04:04.132Z,1015.24
2016-07-04T07:05:04.111Z,1015.22
2016-07-04T07:06:04.095Z,1015.22
2016-07-04T07:07:04.077Z,1015.21
2016-07-04T07:08:04.076Z,1015.18
2016-07-04T07:09:04.047Z,1015.22
2016-07-04T07:10:04.031Z,1015.21
2016-07-04T07:11:04.017Z,1015.25
2016-07-04T07:12:03.999Z,1015.23
2016-07-04T07:13:03.987Z,1015.2
2016-07-04T07:14:03.967Z,1015.21
2016-07-04T07:15:03.953Z,1015.23
2016-07-04T07:16:03.936Z,1015.21
2016-07-04T07:17:03.921Z,1015.25
2016-07-04T07:18:03.904Z,1015.26
2016-07-04T07:19:03.889Z,1015.26
2016-07-04T07:20:03.928Z,1015.31
2016-07-04T07:21:03.852Z,1015.25
2016-07-04T07:22:03.842Z,1015.24
2016-07-04T07:23:03.824Z,1015.23
2016-07-04T07:24:03.808Z,1015.25
2016-07-04T07:25:03.791Z,1015.23
2016-07-04T07:26:03.775Z,1015.22
2016-07-04T07:27:03.759Z,1015.22
2016-07-04T07:28:03.742Z,1015.19
2016-07-04T07:29:03.729Z,1015.24
2016-07-04T07:30:04.063Z,1015.19
2016-07-04T07:31:03.826Z,1015.2
2016-07-04T07:32:03.678Z,1015.17
2016-07-04T07:33:03.854Z,1015.16
2016-07-04T07:34:03.647Z,1015.2
2016-07-04T07:35:03.632Z,1015.16
2016-07-04T07:36:03.615Z,1015.15
2016-07-04T07:37:03.606Z,1015.16
2016-07-04T07:38:03.579Z,1015.18
2016-07-04T07:39:03.567Z,1015.18
2016-07-04T07:40:03.552Z,1015.18
2016-07-04T07:41:03.532Z,1015.19
2016-07-04T07:42:03.519Z,1015.16
2016-07-04T07:43:03.498Z,1015.19
2016-07-04T07:44:03.486Z,1015.19
2016-07-04T07:45:03.490Z,1015.19
2016-07-04T07:46:03.461Z,1015.19
2016-07-04T07:47:03.448Z,1015.17
2016-07-04T07:48:03.424Z,1015.19
2016-07-04T07:49:03.426Z,1015.16
2016-07-04T07:50:03.392Z,1015.15
2016-07-04T07:51:03.373Z,1015.16
2016-07-04T07:52:03.359Z,1015.14
2016-07-04T07:53:03.344Z,1015.14
2016-07-04T07:54:03.325Z,1015.14
2016-07-04T07:55:03.323Z,1015.08
2016-07-04T07:56:03.294Z,1015.13
2016-07-04T07:57:03.280Z,1015.09
2016-07-04T07:58:03.263Z,1015.12
2016-07-04T07:59:03.245Z,1015.11
2016-07-04T08:00:03.230Z,1015.13
2016-07-04T08:01:03.213Z,1015.2
2016-07-04T08:02:03.198Z,1015.15
2016-07-04T08:03:03.191Z,1015.1
2016-07-04T08:04:03.167Z,1015.13
2016-07-04T08:05:03.153Z,1015.13
2016-07-04T08:06:03.137Z,1015.1
2016-07-04T08:07:03.118Z,1015.12
2016-07-04T08:08:03.103Z,1015.11
2016-07-04T08:09:03.088Z,1015.08
2016-07-04T08:10:03.072Z,1015.14
2016-07-04T08:11:03.056Z,1015.13
2016-07-04T08:12:03.044Z,1015.11
2016-07-04T08:13:03.023Z,1015.17
2016-07-04T08:14:03.008Z,1015.12
2016-07-04T08:15:03.028Z,1015.11
2016-07-04T08:16:03.020Z,1015.07
2016-07-04T08:17:02.961Z,1015.09
2016-07-04T08:18:02.948Z,1015.1
2016-07-04T08:19:02.926Z,1015.12
2016-07-04T08:20:02.928Z,1015.13
2016-07-04T08:21:02.891Z,1015.07
2016-07-04T08:22:02.877Z,1015.12
2016-07-04T08:23:02.884Z,1015.13
2016-07-04T08:24:02.857Z,1015.11
2016-07-04T08:25:02.830Z,1015.15
2016-07-04T08:26:02.813Z,1015.11
2016-07-04T08:27:02.797Z,1015.1
2016-07-04T08:28:02.781Z,1015.14
2016-07-04T08:29:02.767Z,1015.15
2016-07-04T08:30:02.793Z,1015.15
2016-07-04T08:31:02.736Z,1015.15
2016-07-04T08:32:02.716Z,1015.12
2016-07-04T08:33:02.702Z,1015.12
2016-07-04T08:34:02.692Z,1015.14
2016-07-04T08:35:02.674Z,1015.13
2016-07-04T08:36:02.659Z,1015.13
2016-07-04T08:37:02.638Z,1015.12
2016-07-04T08:38:02.623Z,1015.16
2016-07-04T08:39:02.632Z,1015.13
2016-07-04T08:40:02.600Z,1015.09
2016-07-04T08:41:02.581Z,1015.15
2016-07-04T08:42:02.560Z,1015.13
2016-07-04T08:43:02.542Z,1015.08
2016-07-04T08:44:02.534Z,1015.12
2016-07-04T08:45:02.510Z,1015.07
2016-07-04T08:46:09.512Z,1015.1
2016-07-04T08:47:02.613Z,1015.1
2016-07-04T08:48:17.616Z,1015.1
2016-07-04T08:49:02.453Z,1015.08
2016-07-04T08:50:02.442Z,1015.06
2016-07-04T08:51:02.415Z,1015.1
2016-07-04T08:52:02.403Z,1015.06
2016-07-04T08:53:05.404Z,1015.04
2016-07-04T08:54:02.370Z,1015.04
2016-07-04T08:55:02.355Z,1015.03
2016-07-04T08:56:02.339Z,1015.01
2016-07-04T08:57:10.867Z,1014.98
2016-07-04T08:58:20.696Z,1015.03
2016-07-04T08:59:07.215Z,1015
2016-07-04T09:00:04.532Z,1014.95
2016-07-04T09:25:57.936Z,1014.89
2016-07-04T09:26:57.924Z,1014.92
2016-07-04T09:27:57.905Z,1014.91
2016-07-04T09:28:57.887Z,1014.84
2016-07-04T09:29:57.889Z,1014.88
2016-07-04T09:30:57.859Z,1014.84
2016-07-04T09:31:57.840Z,1014.83
2016-07-04T09:32:57.828Z,1014.8
2016-07-04T09:33:57.815Z,1014.84
2016-07-04T09:34:57.792Z,1014.83
2016-07-04T09:35:57.779Z,1014.8
2016-07-04T09:36:57.768Z,1014.82
2016-07-04T09:37:57.747Z,1014.82
2016-07-04T09:38:57.728Z,1014.79
2016-07-04T09:39:57.728Z,1014.79
2016-07-04T09:40:57.713Z,1014.77
2016-07-04T09:41:57.694Z,1014.8
2016-07-04T09:42:57.668Z,1014.8
2016-07-04T09:43:57.658Z,1014.8
2016-07-04T09:44:57.637Z,1014.8
2016-07-04T09:45:57.632Z,1014.86
2016-07-04T09:46:57.605Z,1014.82
2016-07-04T09:47:57.594Z,1014.77
2016-07-04T09:48:57.573Z,1014.78
2016-07-04T09:49:57.561Z,1014.79
2016-07-04T09:50:57.551Z,1014.77
2016-07-04T09:51:57.526Z,1014.78
2016-07-04T09:52:57.514Z,1014.8
2016-07-04T09:53:57.496Z,1014.77
2016-07-04T09:54:57.487Z,1014.72
2016-07-04T09:55:57.467Z,1014.69
2016-07-04T09:56:57.451Z,1014.69
2016-07-04T09:57:57.434Z,1014.75
2016-07-04T09:58:57.419Z,1014.7
2016-07-04T09:59:57.408Z,1014.73
2016-07-04T10:00:57.393Z,1014.77
2016-07-04T10:01:57.377Z,1014.72
2016-07-04T10:02:57.358Z,1014.73
2016-07-04T10:03:57.347Z,1014.79
2016-07-04T10:04:57.342Z,1014.75
2016-07-04T10:05:57.311Z,1014.71
2016-07-04T10:06:57.299Z,1014.73
2016-07-04T10:07:57.286Z,1014.68
2016-07-04T10:08:57.265Z,1014.75
2016-07-04T10:09:57.258Z,1014.72
2016-07-04T10:10:57.238Z,1014.69
2016-07-04T10:11:57.221Z,1014.66
2016-07-04T10:12:57.215Z,1014.65
2016-07-04T10:13:57.190Z,1014.65
2016-07-04T10:14:57.174Z,1014.69
2016-07-04T10:15:57.163Z,1014.65
2016-07-04T10:16:57.146Z,1014.62
2016-07-04T10:17:57.137Z,1014.59
2016-07-04T10:18:57.113Z,1014.59
2016-07-04T10:19:57.103Z,1014.64
2016-07-04T10:20:57.185Z,1014.63
2016-07-04T10:21:57.073Z,1014.65
2016-07-04T10:22:57.050Z,1014.68
2016-07-04T10:23:57.037Z,1014.67
2016-07-04T10:24:57.022Z,1014.59
2016-07-04T10:25:57.009Z,1014.61
2016-07-04T10:26:56.986Z,1014.55
2016-07-04T10:27:56.975Z,1014.59
2016-07-04T10:28:56.959Z,1014.59
2016-07-04T10:29:56.942Z,1014.58
2016-07-04T10:30:56.924Z,1014.52
2016-07-04T10:31:56.909Z,1014.53
2016-07-04T10:32:56.895Z,1014.58
2016-07-04T10:33:56.880Z,1014.57
2016-07-04T10:34:56.864Z,1014.48
2016-07-04T10:35:56.849Z,1014.46
2016-07-04T10:36:56.835Z,1014.47
2016-07-04T10:37:56.820Z,1014.42
2016-07-04T10:38:56.804Z,1014.47
2016-07-04T10:39:56.786Z,1014.43
2016-07-04T10:40:56.776Z,1014.37
2016-07-04T10:41:56.760Z,1014.41
2016-07-04T10:42:56.746Z,1014.42
2016-07-04T10:43:56.728Z,1014.43
2016-07-04T10:44:56.709Z,1014.36
2016-07-04T10:45:56.694Z,1014.3
2016-07-04T10:46:56.684Z,1014.35
2016-07-04T10:47:56.665Z,1014.33
2016-07-04T10:48:56.652Z,1014.33
2016-07-04T10:49:56.636Z,1014.36
2016-07-04T10:50:56.627Z,1014.29
2016-07-04T10:51:56.607Z,1014.28
2016-07-04T10:52:56.589Z,1014.33
2016-07-04T10:53:56.573Z,1014.28
2016-07-04T10:54:56.566Z,1014.28
2016-07-04T10:55:56.541Z,1014.35
2016-07-04T10:56:56.544Z,1014.24
2016-07-04T10:57:56.513Z,1014.22
2016-07-04T10:58:56.500Z,1014.27
2016-07-04T10:59:56.487Z,1014.23
2016-07-04T11:00:56.465Z,1014.28
2016-07-04T11:01:56.450Z,1014.24
2016-07-04T11:02:56.433Z,1014.24
2016-07-04T11:03:56.420Z,1014.28
2016-07-04T11:04:56.403Z,1014.21
2016-07-04T11:05:56.390Z,1014.21
2016-07-04T11:06:56.374Z,1014.16
2016-07-04T11:07:56.353Z,1014.21
2016-07-04T11:08:56.344Z,1014.17
2016-07-04T11:09:56.330Z,1014.19
2016-07-04T11:10:56.315Z,1014.19
2016-07-04T11:11:56.304Z,1014.15
2016-07-04T11:12:56.281Z,1014.17
2016-07-04T11:13:56.266Z,1014.15
2016-07-04T11:14:56.252Z,1014.14
2016-07-04T11:15:56.236Z,1014.13
2016-07-04T11:16:56.222Z,1014.2
2016-07-04T11:17:56.205Z,1014.16
2016-07-04T11:18:56.190Z,1014.19
2016-07-04T11:19:56.175Z,1014.14
2016-07-04T11:20:56.211Z,1014.13
2016-07-04T11:21:56.146Z,1014.12
2016-07-04T11:22:56.124Z,1014.09
2016-07-04T11:23:56.119Z,1014.09
2016-07-04T11:24:56.099Z,1014.13
2016-07-04T11:25:56.085Z,1014.12
2016-07-04T11:26:56.064Z,1014.11
2016-07-04T11:27:56.052Z,1014.11
2016-07-04T11:28:56.037Z,1014.13
2016-07-04T11:29:56.018Z,1014.07
2016-07-04T11:30:56.006Z,1014.09
2016-07-04T11:31:55.990Z,1014.08
2016-07-04T11:32:55.974Z,1014.07
2016-07-04T11:33:55.957Z,1014.09
2016-07-04T11:34:55.944Z,1014.07
2016-07-04T11:35:55.929Z,1014.05
2016-07-04T11:36:55.911Z,1014.07
2016-07-04T11:37:55.896Z,1014.05
2016-07-04T11:38:55.878Z,1014.1
2016-07-04T11:39:55.867Z,1014.04
2016-07-04T11:40:55.851Z,1014.05
2016-07-04T11:41:55.835Z,1014.07
2016-07-04T11:42:55.823Z,1014
2016-07-04T11:43:55.806Z,1014.02
2016-07-04T11:44:55.798Z,1014
2016-07-04T11:45:55.775Z,1013.99
2016-07-04T11:46:55.759Z,1013.97
2016-07-04T11:47:55.753Z,1013.97
2016-07-04T11:48:55.726Z,1013.95
2016-07-04T11:49:55.714Z,1013.95
2016-07-04T11:50:55.698Z,1013.95
2016-07-04T11:51:55.682Z,1013.99
2016-07-04T11:52:55.669Z,1013.98
2016-07-04T11:53:55.653Z,1013.97
2016-07-04T11:54:55.639Z,1013.99
2016-07-04T11:55:55.622Z,1013.95
2016-07-04T11:56:55.606Z,1013.92
2016-07-04T11:57:55.590Z,1014.01
2016-07-04T11:58:55.579Z,1013.9
2016-07-04T11:59:55.557Z,1013.96
2016-07-04T12:00:55.545Z,1013.93
2016-07-04T12:01:55.530Z,1013.94
2016-07-04T12:02:55.515Z,1013.94
2016-07-04T12:03:55.504Z,1013.89
2016-07-04T12:04:55.490Z,1013.92
2016-07-04T12:05:55.470Z,1013.92
2016-07-04T12:06:55.456Z,1013.94
2016-07-04T12:07:55.434Z,1013.89
2016-07-04T12:08:55.422Z,1013.84
2016-07-04T12:09:55.404Z,1013.89
2016-07-04T12:10:55.388Z,1013.81
2016-07-04T12:11:55.376Z,1013.84
2016-07-04T12:12:55.365Z,1013.81
2016-07-04T12:13:55.344Z,1013.85
2016-07-04T12:14:55.335Z,1013.82
2016-07-04T12:15:55.313Z,1013.79
2016-07-04T12:16:55.307Z,1013.75
2016-07-04T12:17:55.289Z,1013.77
2016-07-04T12:18:55.267Z,1013.82
2016-07-04T12:19:55.253Z,1013.81
2016-07-04T12:20:55.289Z,1013.78
2016-07-04T12:21:55.224Z,1013.79
2016-07-04T12:22:55.219Z,1013.76
2016-07-04T12:23:55.201Z,1013.76
2016-07-04T12:24:55.199Z,1013.75
2016-07-04T12:25:55.164Z,1013.82
2016-07-04T12:26:55.147Z,1013.79
2016-07-04T12:27:55.129Z,1013.8
2016-07-04T12:28:55.136Z,1013.78
2016-07-04T12:29:55.106Z,1013.77
2016-07-04T12:30:55.091Z,1013.82
2016-07-04T12:31:55.084Z,1013.77
2016-07-04T12:32:55.067Z,1013.76